sensor_id;sensor_type;location;lat;lon;timestamp;P1;durP1;ratioP1;P2;durP2;ratioP2
42670;SDS011;28283;55.426;37.756;2023-06-19T00:02:55;2.80;;;1.65;;
42670;SDS011;28283;55.426;37.756;2023-06-19T00:07:56;2.10;;;1.00;;
42670;SDS011;28283;55.426;37.756;2023-06-19T00:12:56;2.58;;;1.45;;
42670;SDS011;28283;55.426;37.756;2023-06-19T00:17:57;3.95;;;1.13;;
42670;SDS011;28283;55.426;37.756;2023-06-19T00:22:59;4.45;;;1.50;;
42670;SDS011;28283;55.426;37.756;2023-06-19T00:28:00;9.88;;;1.60;;
42670;SDS011;28283;55.426;37.756;2023-06-19T00:33:00;3.03;;;1.40;;
42670;SDS011;28283;55.426;37.756;2023-06-19T00:38:04;5.28;;;2.28;;
42670;SDS011;28283;55.426;37.756;2023-06-19T00:43:05;4.55;;;1.80;;
42670;SDS011;28283;55.426;37.756;2023-06-19T00:48:06;6.38;;;1.60;;
42670;SDS011;28283;55.426;37.756;2023-06-19T00:53:07;6.78;;;2.60;;
42670;SDS011;28283;55.426;37.756;2023-06-19T00:58:08;8.10;;;2.40;;
42670;SDS011;28283;55.426;37.756;2023-06-19T01:03:10;3.70;;;2.05;;
42670;SDS011;28283;55.426;37.756;2023-06-19T01:18:31;3.08;;;1.45;;
42670;SDS011;28283;55.426;37.756;2023-06-19T01:23:32;7.97;;;2.58;;
42670;SDS011;28283;55.426;37.756;2023-06-19T01:28:33;4.83;;;1.77;;
42670;SDS011;28283;55.426;37.756;2023-06-19T01:33:37;3.75;;;1.73;;
42670;SDS011;28283;55.426;37.756;2023-06-19T01:38:39;5.88;;;1.90;;
42670;SDS011;28283;55.426;37.756;2023-06-19T01:43:43;4.93;;;1.77;;
42670;SDS011;28283;55.426;37.756;2023-06-19T01:48:45;6.10;;;1.90;;
42670;SDS011;28283;55.426;37.756;2023-06-19T01:53:46;3.95;;;1.40;;
42670;SDS011;28283;55.426;37.756;2023-06-19T01:58:47;2.83;;;1.70;;
42670;SDS011;28283;55.426;37.756;2023-06-19T02:03:47;2.40;;;1.57;;
42670;SDS011;28283;55.426;37.756;2023-06-19T02:08:48;4.00;;;1.97;;
42670;SDS011;28283;55.426;37.756;2023-06-19T02:13:48;4.20;;;2.25;;
42670;SDS011;28283;55.426;37.756;2023-06-19T02:18:49;4.30;;;1.60;;
42670;SDS011;28283;55.426;37.756;2023-06-19T02:23:50;5.72;;;1.55;;
42670;SDS011;28283;55.426;37.756;2023-06-19T02:28:51;4.60;;;1.70;;
42670;SDS011;28283;55.426;37.756;2023-06-19T02:33:51;2.53;;;1.67;;
42670;SDS011;28283;55.426;37.756;2023-06-19T02:38:52;2.60;;;1.60;;
42670;SDS011;28283;55.426;37.756;2023-06-19T02:43:53;3.95;;;1.55;;
42670;SDS011;28283;55.426;37.756;2023-06-19T02:48:53;3.42;;;1.63;;
42670;SDS011;28283;55.426;37.756;2023-06-19T02:53:54;7.13;;;1.77;;
42670;SDS011;28283;55.426;37.756;2023-06-19T02:58:54;5.45;;;1.83;;
42670;SDS011;28283;55.426;37.756;2023-06-19T03:03:55;3.10;;;1.70;;
42670;SDS011;28283;55.426;37.756;2023-06-19T03:08:56;8.43;;;1.85;;
42670;SDS011;28283;55.426;37.756;2023-06-19T03:13:56;4.20;;;1.97;;
42670;SDS011;28283;55.426;37.756;2023-06-19T03:18:57;5.03;;;1.73;;
42670;SDS011;28283;55.426;37.756;2023-06-19T03:23:58;3.23;;;1.63;;
42670;SDS011;28283;55.426;37.756;2023-06-19T03:28:59;4.53;;;2.10;;
42670;SDS011;28283;55.426;37.756;2023-06-19T03:33:59;4.55;;;1.92;;
42670;SDS011;28283;55.426;37.756;2023-06-19T03:39:00;5.03;;;1.83;;
42670;SDS011;28283;55.426;37.756;2023-06-19T03:44:00;4.23;;;1.77;;
42670;SDS011;28283;55.426;37.756;2023-06-19T03:49:01;6.35;;;2.20;;
42670;SDS011;28283;55.426;37.756;2023-06-19T03:54:04;4.40;;;1.65;;
42670;SDS011;28283;55.426;37.756;2023-06-19T03:59:05;3.28;;;1.88;;
42670;SDS011;28283;55.426;37.756;2023-06-19T04:04:06;5.30;;;1.48;;
42670;SDS011;28283;55.426;37.756;2023-06-19T04:09:06;6.20;;;2.10;;
42670;SDS011;28283;55.426;37.756;2023-06-19T04:14:07;7.63;;;1.67;;
42670;SDS011;28283;55.426;37.756;2023-06-19T04:19:08;3.90;;;2.00;;
42670;SDS011;28283;55.426;37.756;2023-06-19T04:24:09;3.20;;;2.45;;
42670;SDS011;28283;55.426;37.756;2023-06-19T04:29:10;5.35;;;2.47;;
42670;SDS011;28283;55.426;37.756;2023-06-19T04:34:17;3.30;;;2.05;;
42670;SDS011;28283;55.426;37.756;2023-06-19T04:39:21;6.35;;;2.08;;
42670;SDS011;28283;55.426;37.756;2023-06-19T04:44:21;6.68;;;2.33;;
42670;SDS011;28283;55.426;37.756;2023-06-19T04:49:22;4.00;;;2.20;;
42670;SDS011;28283;55.426;37.756;2023-06-19T04:54:23;3.70;;;2.17;;
42670;SDS011;28283;55.426;37.756;2023-06-19T04:59:24;5.38;;;2.00;;
42670;SDS011;28283;55.426;37.756;2023-06-19T05:04:25;7.43;;;2.55;;
42670;SDS011;28283;55.426;37.756;2023-06-19T05:14:26;4.80;;;2.10;;
42670;SDS011;28283;55.426;37.756;2023-06-19T05:24:27;2.55;;;2.08;;
42670;SDS011;28283;55.426;37.756;2023-06-19T05:29:28;2.97;;;1.92;;
42670;SDS011;28283;55.426;37.756;2023-06-19T05:34:30;3.05;;;1.95;;
42670;SDS011;28283;55.426;37.756;2023-06-19T05:44:31;4.10;;;2.80;;
42670;SDS011;28283;55.426;37.756;2023-06-19T05:54:32;4.00;;;2.00;;
42670;SDS011;28283;55.426;37.756;2023-06-19T05:59:33;3.10;;;1.92;;
42670;SDS011;28283;55.426;37.756;2023-06-19T06:09:34;3.33;;;2.30;;
42670;SDS011;28283;55.426;37.756;2023-06-19T06:19:37;6.30;;;2.33;;
42670;SDS011;28283;55.426;37.756;2023-06-19T06:24:38;5.70;;;2.50;;
42670;SDS011;28283;55.426;37.756;2023-06-19T06:34:40;4.90;;;1.38;;
42670;SDS011;28283;55.426;37.756;2023-06-19T06:39:40;5.65;;;1.33;;
42670;SDS011;28283;55.426;37.756;2023-06-19T06:44:41;2.15;;;1.38;;
42670;SDS011;28283;55.426;37.756;2023-06-19T06:49:42;4.07;;;1.17;;
42670;SDS011;28283;55.426;37.756;2023-06-19T06:54:42;2.47;;;1.00;;
42670;SDS011;28283;55.426;37.756;2023-06-19T06:59:43;2.70;;;1.00;;
42670;SDS011;28283;55.426;37.756;2023-06-19T07:04:44;10.73;;;1.48;;
42670;SDS011;28283;55.426;37.756;2023-06-19T07:09:44;4.03;;;1.10;;
42670;SDS011;28283;55.426;37.756;2023-06-19T07:14:45;3.40;;;1.17;;
42670;SDS011;28283;55.426;37.756;2023-06-19T07:19:45;2.60;;;0.90;;
42670;SDS011;28283;55.426;37.756;2023-06-19T07:24:46;4.35;;;1.05;;
42670;SDS011;28283;55.426;37.756;2023-06-19T07:29:47;3.63;;;1.10;;
42670;SDS011;28283;55.426;37.756;2023-06-19T07:34:47;4.88;;;1.08;;
42670;SDS011;28283;55.426;37.756;2023-06-19T07:39:49;6.70;;;1.35;;
42670;SDS011;28283;55.426;37.756;2023-06-19T07:44:50;2.55;;;0.80;;
42670;SDS011;28283;55.426;37.756;2023-06-19T07:49:51;3.70;;;1.70;;
42670;SDS011;28283;55.426;37.756;2023-06-19T07:54:52;3.10;;;1.38;;
42670;SDS011;28283;55.426;37.756;2023-06-19T07:59:54;4.20;;;1.10;;
42670;SDS011;28283;55.426;37.756;2023-06-19T08:04:55;3.35;;;1.25;;
42670;SDS011;28283;55.426;37.756;2023-06-19T08:09:56;3.60;;;1.50;;
42670;SDS011;28283;55.426;37.756;2023-06-19T08:14:56;3.92;;;1.20;;
42670;SDS011;28283;55.426;37.756;2023-06-19T08:19:57;4.68;;;1.50;;
42670;SDS011;28283;55.426;37.756;2023-06-19T08:24:57;6.22;;;1.33;;
42670;SDS011;28283;55.426;37.756;2023-06-19T08:29:58;5.97;;;2.10;;
42670;SDS011;28283;55.426;37.756;2023-06-19T08:34:59;2.28;;;1.50;;
42670;SDS011;28283;55.426;37.756;2023-06-19T08:39:59;2.05;;;1.02;;
42670;SDS011;28283;55.426;37.756;2023-06-19T08:45:00;3.72;;;1.05;;
42670;SDS011;28283;55.426;37.756;2023-06-19T08:50:01;5.47;;;1.27;;
42670;SDS011;28283;55.426;37.756;2023-06-19T08:55:02;2.78;;;1.55;;
42670;SDS011;28283;55.426;37.756;2023-06-19T09:00:03;2.40;;;1.42;;
42670;SDS011;28283;55.426;37.756;2023-06-19T09:05:24;3.70;;;1.33;;
42670;SDS011;28283;55.426;37.756;2023-06-19T09:10:25;5.45;;;1.10;;
42670;SDS011;28283;55.426;37.756;2023-06-19T09:15:27;3.60;;;1.13;;
42670;SDS011;28283;55.426;37.756;2023-06-19T09:20:30;6.95;;;1.80;;
42670;SDS011;28283;55.426;37.756;2023-06-19T09:25:42;4.13;;;1.45;;
42670;SDS011;28283;55.426;37.756;2023-06-19T09:30:58;8.35;;;2.05;;
42670;SDS011;28283;55.426;37.756;2023-06-19T09:36:01;7.10;;;1.90;;
42670;SDS011;28283;55.426;37.756;2023-06-19T09:41:04;3.53;;;2.08;;
42670;SDS011;28283;55.426;37.756;2023-06-19T09:46:05;4.55;;;1.90;;
42670;SDS011;28283;55.426;37.756;2023-06-19T09:51:09;6.13;;;2.42;;
42670;SDS011;28283;55.426;37.756;2023-06-19T09:56:14;5.05;;;1.30;;
42670;SDS011;28283;55.426;37.756;2023-06-19T10:01:16;5.60;;;1.58;;
42670;SDS011;28283;55.426;37.756;2023-06-19T10:06:22;1.67;;;1.45;;
42670;SDS011;28283;55.426;37.756;2023-06-19T10:11:22;6.15;;;1.60;;
42670;SDS011;28283;55.426;37.756;2023-06-19T10:16:24;7.95;;;1.85;;
42670;SDS011;28283;55.426;37.756;2023-06-19T10:21:25;4.70;;;1.92;;
42670;SDS011;28283;55.426;37.756;2023-06-19T10:26:32;3.65;;;1.60;;
42670;SDS011;28283;55.426;37.756;2023-06-19T10:31:34;4.63;;;1.63;;
42670;SDS011;28283;55.426;37.756;2023-06-19T10:36:36;7.15;;;1.27;;
42670;SDS011;28283;55.426;37.756;2023-06-19T10:41:39;4.18;;;1.58;;
42670;SDS011;28283;55.426;37.756;2023-06-19T10:46:40;3.35;;;2.00;;
42670;SDS011;28283;55.426;37.756;2023-06-19T10:51:41;5.97;;;1.80;;
42670;SDS011;28283;55.426;37.756;2023-06-19T10:56:44;6.38;;;1.92;;
42670;SDS011;28283;55.426;37.756;2023-06-19T11:01:48;11.52;;;1.80;;
42670;SDS011;28283;55.426;37.756;2023-06-19T11:06:50;8.63;;;2.10;;
42670;SDS011;28283;55.426;37.756;2023-06-19T11:11:51;4.07;;;2.13;;
42670;SDS011;28283;55.426;37.756;2023-06-19T11:16:52;14.77;;;2.67;;
42670;SDS011;28283;55.426;37.756;2023-06-19T11:21:53;12.15;;;3.55;;
42670;SDS011;28283;55.426;37.756;2023-06-19T11:26:55;6.95;;;2.72;;
42670;SDS011;28283;55.426;37.756;2023-06-19T11:32:09;5.38;;;2.53;;
42670;SDS011;28283;55.426;37.756;2023-06-19T11:42:14;4.40;;;2.08;;
42670;SDS011;28283;55.426;37.756;2023-06-19T11:47:18;5.03;;;1.77;;
42670;SDS011;28283;55.426;37.756;2023-06-19T11:52:18;4.22;;;1.60;;
42670;SDS011;28283;55.426;37.756;2023-06-19T11:57:19;4.57;;;1.75;;
42670;SDS011;28283;55.426;37.756;2023-06-19T12:02:20;4.43;;;1.60;;
42670;SDS011;28283;55.426;37.756;2023-06-19T12:07:21;4.35;;;1.48;;
42670;SDS011;28283;55.426;37.756;2023-06-19T12:12:21;4.45;;;1.30;;
42670;SDS011;28283;55.426;37.756;2023-06-19T12:17:22;1.73;;;1.17;;
42670;SDS011;28283;55.426;37.756;2023-06-19T12:22:23;3.95;;;1.50;;
42670;SDS011;28283;55.426;37.756;2023-06-19T12:27:23;6.85;;;1.50;;
42670;SDS011;28283;55.426;37.756;2023-06-19T12:32:24;3.45;;;1.40;;
42670;SDS011;28283;55.426;37.756;2023-06-19T12:37:24;4.75;;;1.45;;
42670;SDS011;28283;55.426;37.756;2023-06-19T12:42:25;5.57;;;1.50;;
42670;SDS011;28283;55.426;37.756;2023-06-19T12:47:26;4.07;;;1.67;;
42670;SDS011;28283;55.426;37.756;2023-06-19T12:52:26;6.55;;;1.80;;
42670;SDS011;28283;55.426;37.756;2023-06-19T12:57:27;3.97;;;1.70;;
42670;SDS011;28283;55.426;37.756;2023-06-19T13:02:28;2.58;;;1.50;;
42670;SDS011;28283;55.426;37.756;2023-06-19T13:07:28;2.95;;;1.67;;
42670;SDS011;28283;55.426;37.756;2023-06-19T13:12:29;6.15;;;1.75;;
42670;SDS011;28283;55.426;37.756;2023-06-19T13:17:29;2.15;;;1.15;;
42670;SDS011;28283;55.426;37.756;2023-06-19T13:22:30;3.17;;;1.67;;
42670;SDS011;28283;55.426;37.756;2023-06-19T13:27:31;7.35;;;1.98;;
42670;SDS011;28283;55.426;37.756;2023-06-19T13:32:32;4.78;;;1.60;;
42670;SDS011;28283;55.426;37.756;2023-06-19T13:37:33;5.43;;;1.90;;
42670;SDS011;28283;55.426;37.756;2023-06-19T13:42:35;5.65;;;1.50;;
42670;SDS011;28283;55.426;37.756;2023-06-19T13:47:36;2.58;;;1.20;;
42670;SDS011;28283;55.426;37.756;2023-06-19T13:52:37;3.75;;;1.38;;
42670;SDS011;28283;55.426;37.756;2023-06-19T13:57:37;4.97;;;1.35;;
42670;SDS011;28283;55.426;37.756;2023-06-19T14:02:40;4.57;;;1.05;;
42670;SDS011;28283;55.426;37.756;2023-06-19T14:07:41;9.05;;;1.45;;
42670;SDS011;28283;55.426;37.756;2023-06-19T14:12:42;2.95;;;1.30;;
42670;SDS011;28283;55.426;37.756;2023-06-19T14:17:43;4.57;;;1.40;;
42670;SDS011;28283;55.426;37.756;2023-06-19T14:22:44;2.33;;;1.13;;
42670;SDS011;28283;55.426;37.756;2023-06-19T14:27:45;5.28;;;1.65;;
42670;SDS011;28283;55.426;37.756;2023-06-19T14:32:47;7.90;;;1.52;;
42670;SDS011;28283;55.426;37.756;2023-06-19T14:37:48;6.28;;;1.60;;
42670;SDS011;28283;55.426;37.756;2023-06-19T14:42:48;4.43;;;1.40;;
42670;SDS011;28283;55.426;37.756;2023-06-19T14:47:49;4.88;;;1.65;;
42670;SDS011;28283;55.426;37.756;2023-06-19T14:52:50;3.50;;;2.05;;
42670;SDS011;28283;55.426;37.756;2023-06-19T14:57:51;7.70;;;1.83;;
42670;SDS011;28283;55.426;37.756;2023-06-19T15:02:51;3.22;;;1.60;;
42670;SDS011;28283;55.426;37.756;2023-06-19T15:07:52;6.32;;;1.75;;
42670;SDS011;28283;55.426;37.756;2023-06-19T15:12:52;2.13;;;1.58;;
42670;SDS011;28283;55.426;37.756;2023-06-19T15:17:53;4.15;;;1.73;;
42670;SDS011;28283;55.426;37.756;2023-06-19T15:22:54;4.20;;;1.27;;
42670;SDS011;28283;55.426;37.756;2023-06-19T15:27:55;9.10;;;1.55;;
42670;SDS011;28283;55.426;37.756;2023-06-19T15:32:56;6.72;;;1.75;;
42670;SDS011;28283;55.426;37.756;2023-06-19T15:37:56;6.00;;;1.42;;
42670;SDS011;28283;55.426;37.756;2023-06-19T15:42:58;5.32;;;1.38;;
42670;SDS011;28283;55.426;37.756;2023-06-19T15:47:59;3.40;;;1.30;;
42670;SDS011;28283;55.426;37.756;2023-06-19T15:53:00;3.60;;;1.20;;
42670;SDS011;28283;55.426;37.756;2023-06-19T15:58:01;6.15;;;1.17;;
42670;SDS011;28283;55.426;37.756;2023-06-19T16:03:01;5.75;;;1.50;;
42670;SDS011;28283;55.426;37.756;2023-06-19T16:08:02;10.20;;;1.77;;
42670;SDS011;28283;55.426;37.756;2023-06-19T16:13:03;5.47;;;1.52;;
42670;SDS011;28283;55.426;37.756;2023-06-19T16:18:04;7.30;;;1.50;;
42670;SDS011;28283;55.426;37.756;2023-06-19T16:23:05;2.88;;;1.40;;
42670;SDS011;28283;55.426;37.756;2023-06-19T16:28:05;4.15;;;1.35;;
42670;SDS011;28283;55.426;37.756;2023-06-19T16:33:06;4.65;;;1.23;;
42670;SDS011;28283;55.426;37.756;2023-06-19T16:38:07;4.38;;;1.33;;
42670;SDS011;28283;55.426;37.756;2023-06-19T16:43:08;2.83;;;1.23;;
42670;SDS011;28283;55.426;37.756;2023-06-19T16:48:09;8.93;;;1.75;;
42670;SDS011;28283;55.426;37.756;2023-06-19T16:53:11;5.95;;;1.85;;
42670;SDS011;28283;55.426;37.756;2023-06-19T16:58:13;5.97;;;1.60;;
42670;SDS011;28283;55.426;37.756;2023-06-19T17:03:13;5.93;;;1.85;;
42670;SDS011;28283;55.426;37.756;2023-06-19T17:08:14;5.93;;;1.92;;
42670;SDS011;28283;55.426;37.756;2023-06-19T17:13:16;7.97;;;1.95;;
42670;SDS011;28283;55.426;37.756;2023-06-19T17:18:17;6.22;;;2.10;;
42670;SDS011;28283;55.426;37.756;2023-06-19T17:23:18;9.10;;;2.22;;
42670;SDS011;28283;55.426;37.756;2023-06-19T17:28:19;8.50;;;1.92;;
42670;SDS011;28283;55.426;37.756;2023-06-19T17:33:19;3.75;;;1.70;;
42670;SDS011;28283;55.426;37.756;2023-06-19T17:38:20;8.65;;;2.33;;
42670;SDS011;28283;55.426;37.756;2023-06-19T17:43:20;4.40;;;2.80;;
42670;SDS011;28283;55.426;37.756;2023-06-19T17:48:21;8.75;;;3.00;;
42670;SDS011;28283;55.426;37.756;2023-06-19T17:53:22;9.77;;;3.63;;
42670;SDS011;28283;55.426;37.756;2023-06-19T17:58:22;9.27;;;3.63;;
42670;SDS011;28283;55.426;37.756;2023-06-19T18:03:23;7.10;;;3.10;;
42670;SDS011;28283;55.426;37.756;2023-06-19T18:08:24;9.13;;;3.20;;
42670;SDS011;28283;55.426;37.756;2023-06-19T18:13:24;9.45;;;3.28;;
42670;SDS011;28283;55.426;37.756;2023-06-19T18:18:25;8.43;;;3.42;;
42670;SDS011;28283;55.426;37.756;2023-06-19T18:23:26;9.73;;;2.80;;
42670;SDS011;28283;55.426;37.756;2023-06-19T18:28:27;5.82;;;3.00;;
42670;SDS011;28283;55.426;37.756;2023-06-19T18:33:27;13.55;;;3.20;;
42670;SDS011;28283;55.426;37.756;2023-06-19T18:38:28;7.72;;;3.08;;
42670;SDS011;28283;55.426;37.756;2023-06-19T18:43:29;4.78;;;2.72;;
42670;SDS011;28283;55.426;37.756;2023-06-19T18:48:29;11.52;;;2.42;;
42670;SDS011;28283;55.426;37.756;2023-06-19T18:53:30;11.68;;;3.33;;
42670;SDS011;28283;55.426;37.756;2023-06-19T18:58:31;11.38;;;3.75;;
42670;SDS011;28283;55.426;37.756;2023-06-19T19:03:31;5.38;;;3.78;;
42670;SDS011;28283;55.426;37.756;2023-06-19T19:08:32;9.15;;;3.30;;
42670;SDS011;28283;55.426;37.756;2023-06-19T19:13:34;11.55;;;3.55;;
42670;SDS011;28283;55.426;37.756;2023-06-19T19:23:35;8.82;;;3.03;;
42670;SDS011;28283;55.426;37.756;2023-06-19T19:28:36;14.18;;;3.78;;
42670;SDS011;28283;55.426;37.756;2023-06-19T19:33:37;18.05;;;4.82;;
42670;SDS011;28283;55.426;37.756;2023-06-19T19:43:38;7.23;;;4.10;;
42670;SDS011;28283;55.426;37.756;2023-06-19T19:48:38;14.48;;;4.68;;
42670;SDS011;28283;55.426;37.756;2023-06-19T19:53:39;12.38;;;4.55;;
42670;SDS011;28283;55.426;37.756;2023-06-19T20:03:40;6.83;;;3.80;;
42670;SDS011;28283;55.426;37.756;2023-06-19T20:08:42;6.50;;;3.60;;
42670;SDS011;28283;55.426;37.756;2023-06-19T20:13:43;9.32;;;4.38;;
42670;SDS011;28283;55.426;37.756;2023-06-19T20:23:46;10.83;;;5.10;;
42670;SDS011;28283;55.426;37.756;2023-06-19T20:33:48;13.45;;;6.20;;
42670;SDS011;28283;55.426;37.756;2023-06-19T20:43:50;15.93;;;6.28;;
42670;SDS011;28283;55.426;37.756;2023-06-19T20:53:51;10.03;;;5.90;;
42670;SDS011;28283;55.426;37.756;2023-06-19T20:58:51;12.43;;;7.07;;
42670;SDS011;28283;55.426;37.756;2023-06-19T21:03:55;13.18;;;6.95;;
42670;SDS011;28283;55.426;37.756;2023-06-19T21:08:56;13.18;;;5.88;;
42670;SDS011;28283;55.426;37.756;2023-06-19T21:13:59;13.13;;;5.68;;
42670;SDS011;28283;55.426;37.756;2023-06-19T21:19:00;16.17;;;5.68;;
42670;SDS011;28283;55.426;37.756;2023-06-19T21:24:01;23.17;;;6.95;;
42670;SDS011;28283;55.426;37.756;2023-06-19T21:29:01;16.73;;;5.95;;
42670;SDS011;28283;55.426;37.756;2023-06-19T21:34:02;23.23;;;5.55;;
42670;SDS011;28283;55.426;37.756;2023-06-19T21:39:03;32.15;;;6.45;;
42670;SDS011;28283;55.426;37.756;2023-06-19T21:44:03;33.50;;;6.70;;
42670;SDS011;28283;55.426;37.756;2023-06-19T21:49:04;32.20;;;6.28;;
42670;SDS011;28283;55.426;37.756;2023-06-19T21:54:05;29.77;;;6.35;;
42670;SDS011;28283;55.426;37.756;2023-06-19T21:59:05;30.40;;;5.07;;
42670;SDS011;28283;55.426;37.756;2023-06-19T22:09:07;20.42;;;5.25;;
42670;SDS011;28283;55.426;37.756;2023-06-19T22:14:07;13.02;;;4.10;;
42670;SDS011;28283;55.426;37.756;2023-06-19T22:19:08;12.45;;;3.55;;
42670;SDS011;28283;55.426;37.756;2023-06-19T22:24:10;14.23;;;3.97;;
42670;SDS011;28283;55.426;37.756;2023-06-19T22:29:11;13.32;;;5.53;;
42670;SDS011;28283;55.426;37.756;2023-06-19T22:34:12;14.82;;;4.43;;
42670;SDS011;28283;55.426;37.756;2023-06-19T22:39:13;15.60;;;4.45;;
42670;SDS011;28283;55.426;37.756;2023-06-19T22:44:14;24.50;;;5.18;;
42670;SDS011;28283;55.426;37.756;2023-06-19T22:49:14;13.98;;;4.80;;
42670;SDS011;28283;55.426;37.756;2023-06-19T22:54:15;14.43;;;4.15;;
42670;SDS011;28283;55.426;37.756;2023-06-19T22:59:19;18.20;;;4.88;;
42670;SDS011;28283;55.426;37.756;2023-06-19T23:04:19;10.25;;;4.07;;
42670;SDS011;28283;55.426;37.756;2023-06-19T23:09:23;14.65;;;4.03;;
42670;SDS011;28283;55.426;37.756;2023-06-19T23:14:24;15.93;;;3.85;;
42670;SDS011;28283;55.426;37.756;2023-06-19T23:19:25;12.35;;;4.03;;
42670;SDS011;28283;55.426;37.756;2023-06-19T23:24:26;10.00;;;4.35;;
42670;SDS011;28283;55.426;37.756;2023-06-19T23:29:28;9.80;;;3.85;;
42670;SDS011;28283;55.426;37.756;2023-06-19T23:34:32;12.38;;;4.50;;
42670;SDS011;28283;55.426;37.756;2023-06-19T23:39:33;9.93;;;4.20;;
42670;SDS011;28283;55.426;37.756;2023-06-19T23:44:34;9.68;;;3.50;;
42670;SDS011;28283;55.426;37.756;2023-06-19T23:54:38;12.27;;;5.05;;
42670;SDS011;28283;55.426;37.756;2023-06-19T23:59:38;9.17;;;4.73;;
